Terminal Aerodrome Forecast
Issued by NWS Shreveport, LA

Current Version | Previous Version | Text Only | Print | Product List | Glossary On
Versions: 1 2 3 4 5 6 7 8 9 10 11 12 13 14 15
000
FTUS44 KSHV 251721
TAFSHV
TAF
KSHV 251721Z 2518/2618 24005KT P6SM SCT080 BKN250
     FM260000 32012G18KT P6SM VCSH OVC025
     FM260300 33016G24KT 5SM -SHRA BR OVC015
     FM260900 29009KT P6SM BKN015
     FM261200 31010KT P6SM OVC030
     FM261500 31012KT P6SM BKN035=

USA.gov is the U.S. government's official web portal to all federal, state and local government web resources and services.